sensor_id;sensor_type;location;lat;lon;timestamp;pressure;altitude;pressure_sealevel;temperature
61977;BMP280;45905;50.570;10.428;2023-12-28T00:01:18;97717.81;;;4.25
61977;BMP280;45905;50.570;10.428;2023-12-28T00:03:46;97715.19;;;4.26
61977;BMP280;45905;50.570;10.428;2023-12-28T00:06:14;97719.28;;;4.27
61977;BMP280;45905;50.570;10.428;2023-12-28T00:08:43;97720.09;;;4.28
61977;BMP280;45905;50.570;10.428;2023-12-28T00:11:19;97698.31;;;4.28
61977;BMP280;45905;50.570;10.428;2023-12-28T00:13:47;97690.00;;;4.28
61977;BMP280;45905;50.570;10.428;2023-12-28T00:16:15;97688.13;;;4.30
61977;BMP280;45905;50.570;10.428;2023-12-28T00:18:43;97680.50;;;4.31
61977;BMP280;45905;50.570;10.428;2023-12-28T00:21:10;97687.00;;;4.34
61977;BMP280;45905;50.570;10.428;2023-12-28T00:23:38;97693.59;;;4.35
61977;BMP280;45905;50.570;10.428;2023-12-28T00:26:06;97716.16;;;4.35
61977;BMP280;45905;50.570;10.428;2023-12-28T00:28:34;97717.75;;;4.36
61977;BMP280;45905;50.570;10.428;2023-12-28T00:31:02;97710.91;;;4.38
61977;BMP280;45905;50.570;10.428;2023-12-28T00:33:29;97715.13;;;4.37
61977;BMP280;45905;50.570;10.428;2023-12-28T00:35:57;97728.69;;;4.35
61977;BMP280;45905;50.570;10.428;2023-12-28T00:38:24;97741.25;;;4.35
61977;BMP280;45905;50.570;10.428;2023-12-28T00:40:52;97750.69;;;4.31
61977;BMP280;45905;50.570;10.428;2023-12-28T00:43:20;97748.19;;;4.31
61977;BMP280;45905;50.570;10.428;2023-12-28T00:45:48;97758.34;;;4.30
61977;BMP280;45905;50.570;10.428;2023-12-28T00:48:16;97748.47;;;4.28
61977;BMP280;45905;50.570;10.428;2023-12-28T00:50:44;97758.72;;;4.25
61977;BMP280;45905;50.570;10.428;2023-12-28T00:53:11;97752.78;;;4.26
61977;BMP280;45905;50.570;10.428;2023-12-28T00:55:39;97745.16;;;4.28
61977;BMP280;45905;50.570;10.428;2023-12-28T00:58:07;97736.72;;;4.29
61977;BMP280;45905;50.570;10.428;2023-12-28T01:00:34;97742.38;;;4.31
61977;BMP280;45905;50.570;10.428;2023-12-28T01:03:01;97735.66;;;4.31
61977;BMP280;45905;50.570;10.428;2023-12-28T01:05:30;97721.19;;;4.35
61977;BMP280;45905;50.570;10.428;2023-12-28T01:07:57;97738.63;;;4.36
61977;BMP280;45905;50.570;10.428;2023-12-28T01:10:27;97733.47;;;4.38
61977;BMP280;45905;50.570;10.428;2023-12-28T01:12:55;97722.28;;;4.41
61977;BMP280;45905;50.570;10.428;2023-12-28T01:15:24;97713.03;;;4.42
61977;BMP280;45905;50.570;10.428;2023-12-28T01:17:52;97726.13;;;4.45
61977;BMP280;45905;50.570;10.428;2023-12-28T01:20:20;97719.25;;;4.47
61977;BMP280;45905;50.570;10.428;2023-12-28T01:22:48;97735.91;;;4.48
61977;BMP280;45905;50.570;10.428;2023-12-28T01:25:17;97744.22;;;4.49
61977;BMP280;45905;50.570;10.428;2023-12-28T01:27:45;97740.94;;;4.48
61977;BMP280;45905;50.570;10.428;2023-12-28T01:30:13;97741.84;;;4.47
61977;BMP280;45905;50.570;10.428;2023-12-28T01:32:40;97741.59;;;4.50
61977;BMP280;45905;50.570;10.428;2023-12-28T01:35:08;97730.41;;;4.54
61977;BMP280;45905;50.570;10.428;2023-12-28T01:37:36;97741.25;;;4.55
61977;BMP280;45905;50.570;10.428;2023-12-28T01:40:05;97731.34;;;4.53
61977;BMP280;45905;50.570;10.428;2023-12-28T01:42:33;97733.16;;;4.51
61977;BMP280;45905;50.570;10.428;2023-12-28T01:45:01;97729.97;;;4.49
61977;BMP280;45905;50.570;10.428;2023-12-28T01:47:29;97734.06;;;4.50
61977;BMP280;45905;50.570;10.428;2023-12-28T01:49:59;97733.84;;;4.53
61977;BMP280;45905;50.570;10.428;2023-12-28T01:52:28;97749.69;;;4.54
61977;BMP280;45905;50.570;10.428;2023-12-28T01:54:56;97751.13;;;4.56
61977;BMP280;45905;50.570;10.428;2023-12-28T01:57:24;97747.72;;;4.57
61977;BMP280;45905;50.570;10.428;2023-12-28T01:59:53;97745.88;;;4.59
61977;BMP280;45905;50.570;10.428;2023-12-28T02:02:22;97750.09;;;4.58
61977;BMP280;45905;50.570;10.428;2023-12-28T02:04:50;97741.53;;;4.61
61977;BMP280;45905;50.570;10.428;2023-12-28T02:07:20;97750.66;;;4.62
61977;BMP280;45905;50.570;10.428;2023-12-28T02:09:48;97743.94;;;4.62
61977;BMP280;45905;50.570;10.428;2023-12-28T02:12:17;97748.34;;;4.70
61977;BMP280;45905;50.570;10.428;2023-12-28T02:14:44;97735.97;;;4.77
61977;BMP280;45905;50.570;10.428;2023-12-28T02:17:28;97748.16;;;4.91
61977;BMP280;45905;50.570;10.428;2023-12-28T02:19:58;97750.63;;;5.02
61977;BMP280;45905;50.570;10.428;2023-12-28T02:22:27;97751.84;;;5.07
61977;BMP280;45905;50.570;10.428;2023-12-28T02:25:11;97731.81;;;5.26
61977;BMP280;45905;50.570;10.428;2023-12-28T02:27:45;97738.56;;;5.34
61977;BMP280;45905;50.570;10.428;2023-12-28T02:30:18;97735.84;;;5.47
61977;BMP280;45905;50.570;10.428;2023-12-28T02:33:28;97733.09;;;5.50
61977;BMP280;45905;50.570;10.428;2023-12-28T02:36:11;97734.94;;;5.48
61977;BMP280;45905;50.570;10.428;2023-12-28T02:38:41;97749.31;;;5.46
61977;BMP280;45905;50.570;10.428;2023-12-28T02:41:09;97753.69;;;5.44
61977;BMP280;45905;50.570;10.428;2023-12-28T02:43:38;97750.25;;;5.45
61977;BMP280;45905;50.570;10.428;2023-12-28T02:46:05;97754.09;;;5.49
61977;BMP280;45905;50.570;10.428;2023-12-28T02:48:33;97743.94;;;5.50
61977;BMP280;45905;50.570;10.428;2023-12-28T02:51:01;97741.16;;;5.53
61977;BMP280;45905;50.570;10.428;2023-12-28T02:53:28;97732.56;;;5.55
61977;BMP280;45905;50.570;10.428;2023-12-28T02:55:56;97738.13;;;5.59
61977;BMP280;45905;50.570;10.428;2023-12-28T02:58:24;97736.44;;;5.59
61977;BMP280;45905;50.570;10.428;2023-12-28T03:00:51;97747.28;;;5.60
61977;BMP280;45905;50.570;10.428;2023-12-28T03:03:20;97754.81;;;5.60
61977;BMP280;45905;50.570;10.428;2023-12-28T03:05:47;97752.16;;;5.61
61977;BMP280;45905;50.570;10.428;2023-12-28T03:08:15;97752.94;;;5.62
61977;BMP280;45905;50.570;10.428;2023-12-28T03:10:42;97744.34;;;5.64
61977;BMP280;45905;50.570;10.428;2023-12-28T03:13:10;97751.56;;;5.69
61977;BMP280;45905;50.570;10.428;2023-12-28T03:15:38;97735.53;;;5.70
61977;BMP280;45905;50.570;10.428;2023-12-28T03:18:06;97748.75;;;5.71
61977;BMP280;45905;50.570;10.428;2023-12-28T03:20:36;97735.94;;;5.74
61977;BMP280;45905;50.570;10.428;2023-12-28T03:23:04;97721.38;;;5.78
61977;BMP280;45905;50.570;10.428;2023-12-28T03:25:32;97721.38;;;5.78
61977;BMP280;45905;50.570;10.428;2023-12-28T03:28:00;97732.78;;;5.82
61977;BMP280;45905;50.570;10.428;2023-12-28T03:30:28;97715.97;;;5.82
61977;BMP280;45905;50.570;10.428;2023-12-28T03:32:56;97716.78;;;5.83
61977;BMP280;45905;50.570;10.428;2023-12-28T03:35:24;97714.00;;;5.86
61977;BMP280;45905;50.570;10.428;2023-12-28T03:37:52;97708.81;;;5.87
61977;BMP280;45905;50.570;10.428;2023-12-28T03:40:19;97726.31;;;5.89
61977;BMP280;45905;50.570;10.428;2023-12-28T03:42:47;97719.44;;;5.90
61977;BMP280;45905;50.570;10.428;2023-12-28T03:45:15;97741.94;;;5.92
61977;BMP280;45905;50.570;10.428;2023-12-28T03:47:43;97741.81;;;5.93
61977;BMP280;45905;50.570;10.428;2023-12-28T03:50:11;97730.53;;;5.97
61977;BMP280;45905;50.570;10.428;2023-12-28T03:52:39;97744.84;;;5.97
61977;BMP280;45905;50.570;10.428;2023-12-28T03:55:07;97750.00;;;6.05
61977;BMP280;45905;50.570;10.428;2023-12-28T03:57:35;97755.94;;;6.13
61977;BMP280;45905;50.570;10.428;2023-12-28T04:00:02;97765.75;;;6.16
61977;BMP280;45905;50.570;10.428;2023-12-28T04:02:38;97772.63;;;6.14
61977;BMP280;45905;50.570;10.428;2023-12-28T04:05:06;97760.34;;;6.11
61977;BMP280;45905;50.570;10.428;2023-12-28T04:07:34;97758.88;;;6.09
61977;BMP280;45905;50.570;10.428;2023-12-28T04:10:03;97771.31;;;6.10
61977;BMP280;45905;50.570;10.428;2023-12-28T04:12:32;97755.31;;;6.11
61977;BMP280;45905;50.570;10.428;2023-12-28T04:15:00;97746.44;;;6.07
61977;BMP280;45905;50.570;10.428;2023-12-28T04:17:27;97743.66;;;6.10
61977;BMP280;45905;50.570;10.428;2023-12-28T04:19:54;97747.78;;;6.11
61977;BMP280;45905;50.570;10.428;2023-12-28T04:22:22;97757.84;;;6.11
61977;BMP280;45905;50.570;10.428;2023-12-28T04:24:50;97761.78;;;6.13
61977;BMP280;45905;50.570;10.428;2023-12-28T04:27:18;97739.03;;;6.15
61977;BMP280;45905;50.570;10.428;2023-12-28T04:29:45;97750.78;;;6.14
61977;BMP280;45905;50.570;10.428;2023-12-28T04:32:14;97758.88;;;6.18
61977;BMP280;45905;50.570;10.428;2023-12-28T04:34:43;97756.25;;;6.19
61977;BMP280;45905;50.570;10.428;2023-12-28T04:37:11;97765.38;;;6.20
61977;BMP280;45905;50.570;10.428;2023-12-28T04:39:38;97770.25;;;6.22
61977;BMP280;45905;50.570;10.428;2023-12-28T04:42:06;97764.28;;;6.23
61977;BMP280;45905;50.570;10.428;2023-12-28T04:44:38;97770.00;;;6.25
61977;BMP280;45905;50.570;10.428;2023-12-28T04:47:07;97749.09;;;6.24
61977;BMP280;45905;50.570;10.428;2023-12-28T04:49:36;97759.94;;;6.25
61977;BMP280;45905;50.570;10.428;2023-12-28T04:52:04;97759.00;;;6.26
61977;BMP280;45905;50.570;10.428;2023-12-28T04:54:32;97755.56;;;6.27
61977;BMP280;45905;50.570;10.428;2023-12-28T04:57:00;97737.19;;;6.26
61977;BMP280;45905;50.570;10.428;2023-12-28T04:59:28;97726.69;;;6.30
61977;BMP280;45905;50.570;10.428;2023-12-28T05:01:56;97736.50;;;6.33
61977;BMP280;45905;50.570;10.428;2023-12-28T05:04:23;97744.84;;;6.34
61977;BMP280;45905;50.570;10.428;2023-12-28T05:06:51;97753.19;;;6.34
61977;BMP280;45905;50.570;10.428;2023-12-28T05:09:18;97752.25;;;6.35
61977;BMP280;45905;50.570;10.428;2023-12-28T05:11:46;97760.47;;;6.37
61977;BMP280;45905;50.570;10.428;2023-12-28T05:14:14;97781.13;;;6.41
61977;BMP280;45905;50.570;10.428;2023-12-28T05:16:41;97799.25;;;6.44
61977;BMP280;45905;50.570;10.428;2023-12-28T05:19:09;97773.84;;;6.47
61977;BMP280;45905;50.570;10.428;2023-12-28T05:21:37;97777.16;;;6.47
61977;BMP280;45905;50.570;10.428;2023-12-28T05:24:05;97760.19;;;6.49
61977;BMP280;45905;50.570;10.428;2023-12-28T05:26:33;97774.50;;;6.49
61977;BMP280;45905;50.570;10.428;2023-12-28T05:29:00;97779.81;;;6.55
61977;BMP280;45905;50.570;10.428;2023-12-28T05:31:28;97788.16;;;6.56
61977;BMP280;45905;50.570;10.428;2023-12-28T05:33:56;97806.41;;;6.58
61977;BMP280;45905;50.570;10.428;2023-12-28T05:36:26;97808.66;;;6.61
61977;BMP280;45905;50.570;10.428;2023-12-28T05:38:54;97815.16;;;6.63
61977;BMP280;45905;50.570;10.428;2023-12-28T05:41:22;97812.53;;;6.65
61977;BMP280;45905;50.570;10.428;2023-12-28T05:43:49;97807.19;;;6.67
61977;BMP280;45905;50.570;10.428;2023-12-28T05:46:16;97799.66;;;6.67
61977;BMP280;45905;50.570;10.428;2023-12-28T05:48:44;97812.78;;;6.71
61977;BMP280;45905;50.570;10.428;2023-12-28T05:51:12;97809.44;;;6.70
61977;BMP280;45905;50.570;10.428;2023-12-28T05:53:40;97816.88;;;6.72
61977;BMP280;45905;50.570;10.428;2023-12-28T05:56:08;97815.03;;;6.74
61977;BMP280;45905;50.570;10.428;2023-12-28T05:58:36;97810.75;;;6.74
61977;BMP280;45905;50.570;10.428;2023-12-28T06:01:06;97820.56;;;6.77
61977;BMP280;45905;50.570;10.428;2023-12-28T06:03:33;97830.38;;;6.80
61977;BMP280;45905;50.570;10.428;2023-12-28T06:06:02;97820.97;;;6.82
61977;BMP280;45905;50.570;10.428;2023-12-28T06:08:30;97830.88;;;6.84
61977;BMP280;45905;50.570;10.428;2023-12-28T06:10:57;97834.88;;;6.86
61977;BMP280;45905;50.570;10.428;2023-12-28T06:13:25;97841.50;;;6.87
61977;BMP280;45905;50.570;10.428;2023-12-28T06:15:53;97839.66;;;6.89
61977;BMP280;45905;50.570;10.428;2023-12-28T06:18:21;97835.41;;;6.89
61977;BMP280;45905;50.570;10.428;2023-12-28T06:20:49;97834.47;;;6.90
61977;BMP280;45905;50.570;10.428;2023-12-28T06:23:16;97828.53;;;6.91
61977;BMP280;45905;50.570;10.428;2023-12-28T06:25:44;97828.38;;;6.93
61977;BMP280;45905;50.570;10.428;2023-12-28T06:28:12;97820.81;;;6.93
61977;BMP280;45905;50.570;10.428;2023-12-28T06:30:39;97818.97;;;6.95
61977;BMP280;45905;50.570;10.428;2023-12-28T06:33:07;97824.00;;;6.95
61977;BMP280;45905;50.570;10.428;2023-12-28T06:35:35;97813.00;;;6.96
61977;BMP280;45905;50.570;10.428;2023-12-28T06:38:03;97817.38;;;6.94
61977;BMP280;45905;50.570;10.428;2023-12-28T06:40:30;97817.91;;;6.97
61977;BMP280;45905;50.570;10.428;2023-12-28T06:42:59;97820.28;;;6.99
61977;BMP280;45905;50.570;10.428;2023-12-28T06:45:26;97815.88;;;7.01
61977;BMP280;45905;50.570;10.428;2023-12-28T06:47:56;97816.84;;;7.00
61977;BMP280;45905;50.570;10.428;2023-12-28T06:50:24;97813.38;;;7.01
61977;BMP280;45905;50.570;10.428;2023-12-28T06:52:52;97822.50;;;7.02
61977;BMP280;45905;50.570;10.428;2023-12-28T06:55:19;97826.63;;;7.03
61977;BMP280;45905;50.570;10.428;2023-12-28T06:57:47;97823.97;;;7.04
61977;BMP280;45905;50.570;10.428;2023-12-28T07:00:15;97808.06;;;7.04
61977;BMP280;45905;50.570;10.428;2023-12-28T07:02:43;97815.50;;;7.05
61977;BMP280;45905;50.570;10.428;2023-12-28T07:05:11;97816.28;;;7.05
61977;BMP280;45905;50.570;10.428;2023-12-28T07:07:40;97812.84;;;7.06
61977;BMP280;45905;50.570;10.428;2023-12-28T07:10:08;97821.34;;;7.05
61977;BMP280;45905;50.570;10.428;2023-12-28T07:12:35;97820.41;;;7.06
61977;BMP280;45905;50.570;10.428;2023-12-28T07:15:03;97824.78;;;7.04
61977;BMP280;45905;50.570;10.428;2023-12-28T07:17:32;97824.78;;;7.04
61977;BMP280;45905;50.570;10.428;2023-12-28T07:19:59;97839.88;;;7.04
61977;BMP280;45905;50.570;10.428;2023-12-28T07:22:27;97840.69;;;7.05
61977;BMP280;45905;50.570;10.428;2023-12-28T07:24:55;97834.84;;;7.04
61977;BMP280;45905;50.570;10.428;2023-12-28T07:27:23;97837.38;;;7.04
61977;BMP280;45905;50.570;10.428;2023-12-28T07:29:50;97835.50;;;7.06
61977;BMP280;45905;50.570;10.428;2023-12-28T07:32:18;97839.63;;;7.07
61977;BMP280;45905;50.570;10.428;2023-12-28T07:34:47;97841.84;;;7.10
61977;BMP280;45905;50.570;10.428;2023-12-28T07:37:15;97846.25;;;7.08
61977;BMP280;45905;50.570;10.428;2023-12-28T07:39:43;97854.44;;;7.10
61977;BMP280;45905;50.570;10.428;2023-12-28T07:42:11;97852.59;;;7.12
61977;BMP280;45905;50.570;10.428;2023-12-28T07:44:39;97847.56;;;7.12
61977;BMP280;45905;50.570;10.428;2023-12-28T07:47:06;97841.47;;;7.15
61977;BMP280;45905;50.570;10.428;2023-12-28T07:49:36;97854.06;;;7.15
61977;BMP280;45905;50.570;10.428;2023-12-28T07:52:05;97841.34;;;7.16
61977;BMP280;45905;50.570;10.428;2023-12-28T07:54:32;97846.06;;;7.19
61977;BMP280;45905;50.570;10.428;2023-12-28T07:57:00;97855.22;;;7.20
61977;BMP280;45905;50.570;10.428;2023-12-28T07:59:28;97855.22;;;7.20
61977;BMP280;45905;50.570;10.428;2023-12-28T08:01:56;97850.84;;;7.22
61977;BMP280;45905;50.570;10.428;2023-12-28T08:04:24;97865.03;;;7.23
61977;BMP280;45905;50.570;10.428;2023-12-28T08:06:52;97864.25;;;7.23
61977;BMP280;45905;50.570;10.428;2023-12-28T08:09:19;97861.59;;;7.24
61977;BMP280;45905;50.570;10.428;2023-12-28T08:11:47;97866.63;;;7.24
61977;BMP280;45905;50.570;10.428;2023-12-28T08:14:15;97869.03;;;7.25
61977;BMP280;45905;50.570;10.428;2023-12-28T08:16:42;97891.28;;;7.30
61977;BMP280;45905;50.570;10.428;2023-12-28T08:19:11;97886.78;;;7.33
61977;BMP280;45905;50.570;10.428;2023-12-28T08:21:39;97885.84;;;7.34
61977;BMP280;45905;50.570;10.428;2023-12-28T08:24:06;97879.88;;;7.35
61977;BMP280;45905;50.570;10.428;2023-12-28T08:26:34;97876.41;;;7.36
61977;BMP280;45905;50.570;10.428;2023-12-28T08:29:01;97870.31;;;7.39
61977;BMP280;45905;50.570;10.428;2023-12-28T08:31:29;97869.25;;;7.41
61977;BMP280;45905;50.570;10.428;2023-12-28T08:33:57;97872.44;;;7.43
61977;BMP280;45905;50.570;10.428;2023-12-28T08:36:25;97864.44;;;7.47
61977;BMP280;45905;50.570;10.428;2023-12-28T08:38:52;97868.56;;;7.48
61977;BMP280;45905;50.570;10.428;2023-12-28T08:41:21;97871.75;;;7.50
61977;BMP280;45905;50.570;10.428;2023-12-28T08:43:51;97877.44;;;7.52
61977;BMP280;45905;50.570;10.428;2023-12-28T08:46:22;97873.16;;;7.53
61977;BMP280;45905;50.570;10.428;2023-12-28T08:48:52;97875.56;;;7.54
61977;BMP280;45905;50.570;10.428;2023-12-28T08:51:20;97876.22;;;7.56
61977;BMP280;45905;50.570;10.428;2023-12-28T08:53:47;97875.28;;;7.57
61977;BMP280;45905;50.570;10.428;2023-12-28T08:56:20;97870.13;;;7.59
61977;BMP280;45905;50.570;10.428;2023-12-28T08:58:49;97874.72;;;7.63
61977;BMP280;45905;50.570;10.428;2023-12-28T09:01:23;97875.25;;;7.66
61977;BMP280;45905;50.570;10.428;2023-12-28T09:03:53;97876.72;;;7.69
61977;BMP280;45905;50.570;10.428;2023-12-28T09:06:24;97870.59;;;7.71
61977;BMP280;45905;50.570;10.428;2023-12-28T09:08:53;97862.09;;;7.72
61977;BMP280;45905;50.570;10.428;2023-12-28T09:11:21;97861.97;;;7.74
61977;BMP280;45905;50.570;10.428;2023-12-28T09:13:49;97854.94;;;7.77
61977;BMP280;45905;50.570;10.428;2023-12-28T09:16:16;97864.88;;;7.79
61977;BMP280;45905;50.570;10.428;2023-12-28T09:18:45;97873.06;;;7.80
61977;BMP280;45905;50.570;10.428;2023-12-28T09:21:13;97873.72;;;7.82
61977;BMP280;45905;50.570;10.428;2023-12-28T09:23:41;97885.16;;;7.86
61977;BMP280;45905;50.570;10.428;2023-12-28T09:26:08;97891.47;;;7.90
61977;BMP280;45905;50.570;10.428;2023-12-28T09:28:36;97897.72;;;7.96
61977;BMP280;45905;50.570;10.428;2023-12-28T09:31:04;97889.19;;;7.97
61977;BMP280;45905;50.570;10.428;2023-12-28T09:33:32;97893.19;;;7.99
61977;BMP280;45905;50.570;10.428;2023-12-28T09:35:59;97897.03;;;8.03
61977;BMP280;45905;50.570;10.428;2023-12-28T09:38:27;97894.22;;;8.06
61977;BMP280;45905;50.570;10.428;2023-12-28T09:40:58;97896.47;;;8.09
61977;BMP280;45905;50.570;10.428;2023-12-28T09:43:38;97892.09;;;8.11
61977;BMP280;45905;50.570;10.428;2023-12-28T09:46:08;97885.19;;;8.13
61977;BMP280;45905;50.570;10.428;2023-12-28T09:48:39;97889.13;;;8.15
61977;BMP280;45905;50.570;10.428;2023-12-28T09:51:06;97888.06;;;8.18
61977;BMP280;45905;50.570;10.428;2023-12-28T09:53:38;97886.19;;;8.19
61977;BMP280;45905;50.570;10.428;2023-12-28T09:56:06;97890.97;;;8.22
61977;BMP280;45905;50.570;10.428;2023-12-28T09:58:36;97895.59;;;8.27
61977;BMP280;45905;50.570;10.428;2023-12-28T10:01:06;97889.59;;;8.28
61977;BMP280;45905;50.570;10.428;2023-12-28T10:03:35;97882.56;;;8.31
61977;BMP280;45905;50.570;10.428;2023-12-28T10:06:03;97888.25;;;8.33
61977;BMP280;45905;50.570;10.428;2023-12-28T10:08:30;97893.00;;;8.36
61977;BMP280;45905;50.570;10.428;2023-12-28T10:10:59;97886.09;;;8.38
61977;BMP280;45905;50.570;10.428;2023-12-28T10:13:28;97891.63;;;8.41
61977;BMP280;45905;50.570;10.428;2023-12-28T10:15:58;97890.56;;;8.44
61977;BMP280;45905;50.570;10.428;2023-12-28T10:18:26;97888.69;;;8.46
61977;BMP280;45905;50.570;10.428;2023-12-28T10:20:55;97889.34;;;8.48
61977;BMP280;45905;50.570;10.428;2023-12-28T10:23:23;97892.50;;;8.50
61977;BMP280;45905;50.570;10.428;2023-12-28T10:25:55;97888.13;;;8.52
61977;BMP280;45905;50.570;10.428;2023-12-28T10:28:24;97890.22;;;8.56
61977;BMP280;45905;50.570;10.428;2023-12-28T10:30:56;97894.19;;;8.58
61977;BMP280;45905;50.570;10.428;2023-12-28T10:33:25;97881.41;;;8.60
61977;BMP280;45905;50.570;10.428;2023-12-28T10:35:57;97887.78;;;8.64
61977;BMP280;45905;50.570;10.428;2023-12-28T10:38:28;97888.44;;;8.66
61977;BMP280;45905;50.570;10.428;2023-12-28T10:40:56;97886.41;;;8.69
61977;BMP280;45905;50.570;10.428;2023-12-28T10:43:24;97886.13;;;8.72
61977;BMP280;45905;50.570;10.428;2023-12-28T10:45:52;97876.69;;;8.74
61977;BMP280;45905;50.570;10.428;2023-12-28T10:48:42;97886.47;;;8.77
61977;BMP280;45905;50.570;10.428;2023-12-28T10:51:13;97892.97;;;8.79
61977;BMP280;45905;50.570;10.428;2023-12-28T10:56:49;97871.25;;;8.86
61977;BMP280;45905;50.570;10.428;2023-12-28T11:02:27;97865.47;;;8.94
61977;BMP280;45905;50.570;10.428;2023-12-28T11:04:56;97868.50;;;8.97
61977;BMP280;45905;50.570;10.428;2023-12-28T11:07:26;97858.09;;;9.00
61977;BMP280;45905;50.570;10.428;2023-12-28T11:10:01;97844.09;;;9.05
61977;BMP280;45905;50.570;10.428;2023-12-28T11:12:33;97832.59;;;9.11
61977;BMP280;45905;50.570;10.428;2023-12-28T11:15:02;97838.81;;;9.16
61977;BMP280;45905;50.570;10.428;2023-12-28T11:17:35;97839.13;;;9.21
61977;BMP280;45905;50.570;10.428;2023-12-28T11:20:04;97831.91;;;9.26
61977;BMP280;45905;50.570;10.428;2023-12-28T11:22:33;97830.38;;;9.33
61977;BMP280;45905;50.570;10.428;2023-12-28T11:25:00;97833.88;;;9.39
61977;BMP280;45905;50.570;10.428;2023-12-28T11:27:35;97828.06;;;9.47
61977;BMP280;45905;50.570;10.428;2023-12-28T11:30:04;97832.41;;;9.54
61977;BMP280;45905;50.570;10.428;2023-12-28T11:32:33;97833.38;;;9.61
61977;BMP280;45905;50.570;10.428;2023-12-28T11:35:06;97833.56;;;9.67
61977;BMP280;45905;50.570;10.428;2023-12-28T11:37:34;97824.91;;;9.77
61977;BMP280;45905;50.570;10.428;2023-12-28T11:40:13;97826.88;;;9.91
61977;BMP280;45905;50.570;10.428;2023-12-28T11:42:53;97824.09;;;10.02
61977;BMP280;45905;50.570;10.428;2023-12-28T11:45:23;97821.94;;;10.14
61977;BMP280;45905;50.570;10.428;2023-12-28T11:48:02;97817.69;;;10.23
61977;BMP280;45905;50.570;10.428;2023-12-28T11:50:31;97811.03;;;10.29
61977;BMP280;45905;50.570;10.428;2023-12-28T11:53:00;97813.88;;;10.34
61977;BMP280;45905;50.570;10.428;2023-12-28T11:55:28;97814.38;;;10.38
61977;BMP280;45905;50.570;10.428;2023-12-28T11:57:56;97817.06;;;10.44
61977;BMP280;45905;50.570;10.428;2023-12-28T12:00:23;97817.56;;;10.48
61977;BMP280;45905;50.570;10.428;2023-12-28T12:02:53;97811.22;;;10.51
61977;BMP280;45905;50.570;10.428;2023-12-28T12:05:24;97805.53;;;10.57
61977;BMP280;45905;50.570;10.428;2023-12-28T12:07:52;97806.50;;;10.56
61977;BMP280;45905;50.570;10.428;2023-12-28T12:10:20;97808.06;;;10.57
61977;BMP280;45905;50.570;10.428;2023-12-28T12:12:53;97801.09;;;10.59
61977;BMP280;45905;50.570;10.428;2023-12-28T12:15:21;97793.81;;;10.64
61977;BMP280;45905;50.570;10.428;2023-12-28T12:17:49;97793.34;;;10.68
61977;BMP280;45905;50.570;10.428;2023-12-28T12:20:16;97778.31;;;10.75
61977;BMP280;45905;50.570;10.428;2023-12-28T12:22:44;97785.28;;;10.81
61977;BMP280;45905;50.570;10.428;2023-12-28T12:25:13;97784.97;;;10.84
61977;BMP280;45905;50.570;10.428;2023-12-28T12:27:40;97788.09;;;10.86
61977;BMP280;45905;50.570;10.428;2023-12-28T12:30:08;97787.50;;;10.84
61977;BMP280;45905;50.570;10.428;2023-12-28T12:32:36;97780.19;;;10.81
61977;BMP280;45905;50.570;10.428;2023-12-28T12:35:11;97788.44;;;10.83
61977;BMP280;45905;50.570;10.428;2023-12-28T12:37:39;97779.09;;;10.83
61977;BMP280;45905;50.570;10.428;2023-12-28T12:40:08;97781.28;;;10.86
61977;BMP280;45905;50.570;10.428;2023-12-28T12:42:38;97776.41;;;10.85
61977;BMP280;45905;50.570;10.428;2023-12-28T12:45:06;97783.03;;;10.86
61977;BMP280;45905;50.570;10.428;2023-12-28T12:47:34;97781.47;;;10.85
61977;BMP280;45905;50.570;10.428;2023-12-28T12:50:02;97776.41;;;10.85
61977;BMP280;45905;50.570;10.428;2023-12-28T12:52:30;97779.88;;;10.84
61977;BMP280;45905;50.570;10.428;2023-12-28T12:54:58;97776.09;;;10.80
61977;BMP280;45905;50.570;10.428;2023-12-28T12:57:26;97778.16;;;10.76
61977;BMP280;45905;50.570;10.428;2023-12-28T12:59:54;97770.53;;;10.68
61977;BMP280;45905;50.570;10.428;2023-12-28T13:02:25;97776.25;;;10.63
61977;BMP280;45905;50.570;10.428;2023-12-28T13:04:55;97766.59;;;10.58
61977;BMP280;45905;50.570;10.428;2023-12-28T13:07:23;97755.84;;;10.56
61977;BMP280;45905;50.570;10.428;2023-12-28T13:09:51;97752.50;;;10.56
61977;BMP280;45905;50.570;10.428;2023-12-28T13:12:18;97740.16;;;10.53
61977;BMP280;45905;50.570;10.428;2023-12-28T13:14:46;97744.13;;;10.48
61977;BMP280;45905;50.570;10.428;2023-12-28T13:17:13;97739.06;;;10.40
61977;BMP280;45905;50.570;10.428;2023-12-28T13:19:41;97746.47;;;10.33
61977;BMP280;45905;50.570;10.428;2023-12-28T13:22:08;97738.06;;;10.25
61977;BMP280;45905;50.570;10.428;2023-12-28T13:24:37;97735.09;;;10.22
61977;BMP280;45905;50.570;10.428;2023-12-28T13:27:05;97753.75;;;10.21
61977;BMP280;45905;50.570;10.428;2023-12-28T13:29:32;97745.34;;;10.12
61977;BMP280;45905;50.570;10.428;2023-12-28T13:32:00;97742.03;;;10.12
61977;BMP280;45905;50.570;10.428;2023-12-28T13:34:28;97740.28;;;10.12
61977;BMP280;45905;50.570;10.428;2023-12-28T13:36:56;97736.81;;;10.13
61977;BMP280;45905;50.570;10.428;2023-12-28T13:39:24;97738.72;;;10.11
61977;BMP280;45905;50.570;10.428;2023-12-28T13:41:51;97738.53;;;10.05
61977;BMP280;45905;50.570;10.428;2023-12-28T13:44:19;97749.75;;;10.03
61977;BMP280;45905;50.570;10.428;2023-12-28T13:46:46;97743.09;;;9.94
61977;BMP280;45905;50.570;10.428;2023-12-28T13:49:14;97740.41;;;9.88
61977;BMP280;45905;50.570;10.428;2023-12-28T13:51:42;97749.72;;;9.87
61977;BMP280;45905;50.570;10.428;2023-12-28T13:54:09;97745.31;;;9.89
61977;BMP280;45905;50.570;10.428;2023-12-28T13:56:37;97751.31;;;9.88
61977;BMP280;45905;50.570;10.428;2023-12-28T13:59:05;97742.94;;;9.88
61977;BMP280;45905;50.570;10.428;2023-12-28T14:01:32;97743.72;;;9.88
61977;BMP280;45905;50.570;10.428;2023-12-28T14:04:00;97742.78;;;9.89
61977;BMP280;45905;50.570;10.428;2023-12-28T14:06:28;97731.88;;;9.89
61977;BMP280;45905;50.570;10.428;2023-12-28T14:08:56;97738.03;;;9.86
61977;BMP280;45905;50.570;10.428;2023-12-28T14:11:25;97737.72;;;9.89
61977;BMP280;45905;50.570;10.428;2023-12-28T14:13:52;97740.41;;;9.88
61977;BMP280;45905;50.570;10.428;2023-12-28T14:16:20;97739.13;;;9.91
61977;BMP280;45905;50.570;10.428;2023-12-28T14:18:47;97732.97;;;9.94
61977;BMP280;45905;50.570;10.428;2023-12-28T14:21:16;97728.56;;;9.96